Time;durP1;ratioP1;P1;durP2;ratioP2;P2;SDS_P1;SDS_P2;PMS_P1;PMS_P2;Temp;Humidity;BMP_temperature;BMP_pressure;BME280_temperature;BME280_humidity;BME280_pressure;Samples;Min_cycle;Max_cycle;Signal;HPM_P1;HPM_P2
2023/05/09 00:01:05;;;;;;;36.85;23.65;;;;;;;14.65;100.00;101634.06;5260238;28;20027;-67
2023/05/09 00:03:36;;;;;;;37.60;23.25;;;;;;;14.56;100.00;101632.97;5266904;28;20056;-67
2023/05/09 00:06:09;;;;;;;37.35;22.55;;;;;;;14.54;100.00;101617.97;5257298;28;20033;-67
2023/05/09 00:08:40;;;;;;;33.25;22.88;;;;;;;14.54;100.00;101621.50;5256356;28;20562;-67
2023/05/09 00:11:11;;;;;;;35.70;22.20;;;;;;;14.54;100.00;101624.19;5255097;28;20024;-67
2023/05/09 00:13:43;;;;;;;32.28;22.38;;;;;;;14.61;100.00;101628.13;5256690;28;20442;-68
2023/05/09 00:16:16;;;;;;;30.40;20.58;;;;;;;14.52;100.00;101624.28;5255798;28;20536;-67
2023/05/09 00:18:47;;;;;;;30.75;20.67;;;;;;;14.53;100.00;101617.09;5252666;28;20572;-67
2023/05/09 00:21:18;;;;;;;32.47;20.70;;;;;;;14.65;100.00;101618.81;5253949;28;20032;-68
2023/05/09 00:23:50;;;;;;;29.60;20.88;;;;;;;14.57;100.00;101618.56;5255041;28;20031;-67
2023/05/09 00:26:22;;;;;;;30.73;20.27;;;;;;;14.46;100.00;101611.38;5254930;28;20025;-67
2023/05/09 00:28:53;;;;;;;30.00;20.35;;;;;;;14.49;100.00;101610.25;5254282;28;20479;-67
2023/05/09 00:31:24;;;;;;;33.45;20.58;;;;;;;14.55;100.00;101612.44;5253724;28;20119;-68
2023/05/09 00:33:56;;;;;;;29.70;18.92;;;;;;;14.51;100.00;101600.25;5254510;28;20029;-67
2023/05/09 00:36:27;;;;;;;30.73;19.85;;;;;;;14.49;100.00;101602.22;5256589;28;20028;-67
2023/05/09 00:38:59;;;;;;;29.75;20.38;;;;;;;14.45;100.00;101596.22;5254189;28;20635;-67
2023/05/09 00:41:30;;;;;;;27.65;19.45;;;;;;;14.52;100.00;101601.97;5254852;28;20033;-68
2023/05/09 00:44:02;;;;;;;27.95;20.95;;;;;;;14.52;100.00;101602.81;5256518;28;20062;-68
2023/05/09 00:46:33;;;;;;;26.88;18.85;;;;;;;14.49;100.00;101610.25;5255830;28;20028;-68
2023/05/09 00:49:05;;;;;;;29.10;19.15;;;;;;;14.45;100.00;101606.13;5261675;28;21541;-67
2023/05/09 00:51:39;;;;;;;26.80;17.98;;;;;;;14.44;100.00;101597.22;5257208;28;20063;-67
2023/05/09 00:54:10;;;;;;;24.60;17.75;;;;;;;14.44;100.00;101591.84;5263390;28;20332;-68
2023/05/09 00:56:42;;;;;;;27.17;18.20;;;;;;;14.55;100.00;101590.97;5259594;28;20029;-68
2023/05/09 00:59:13;;;;;;;25.75;18.23;;;;;;;14.50;100.00;101582.44;5260751;28;22017;-68
2023/05/09 01:01:45;;;;;;;24.65;16.95;;;;;;;14.54;100.00;101578.53;5261613;28;20028;-68
2023/05/09 01:04:16;;;;;;;23.58;17.00;;;;;;;14.53;100.00;101576.81;5259523;28;20064;-68
2023/05/09 01:07:05;;;;;;;21.23;15.80;;;;;;;14.44;100.00;101574.88;5260502;28;20108;-68
2023/05/09 01:09:55;;;;;;;22.13;15.93;;;;;;;14.48;100.00;101566.44;5258706;28;20087;-68
2023/05/09 01:12:53;;;;;;;23.60;16.45;;;;;;;14.48;100.00;101557.56;5252547;28;20398;-68
2023/05/09 01:15:38;;;;;;;20.73;16.40;;;;;;;14.46;100.00;101565.72;5253241;28;20037;-67
2023/05/09 01:18:42;;;;;;;21.90;15.55;;;;;;;14.47;100.00;101562.03;5254931;28;20091;-67
2023/05/09 01:21:22;;;;;;;19.33;14.77;;;;;;;14.44;100.00;101550.69;5254398;28;20039;-67
2023/05/09 01:24:22;;;;;;;22.35;16.50;;;;;;;14.52;100.00;101534.84;5254522;28;20036;-68
2023/05/09 01:27:03;;;;;;;22.52;16.20;;;;;;;14.48;100.00;101536.06;5251059;28;20040;-67
2023/05/09 01:29:46;;;;;;;21.38;15.88;;;;;;;14.54;100.00;101530.19;5251956;28;20037;-68
2023/05/09 01:32:24;;;;;;;20.30;15.45;;;;;;;14.44;100.00;101527.41;5253168;28;20025;-67
2023/05/09 01:35:00;;;;;;;23.60;17.45;;;;;;;14.49;100.00;101530.56;5252821;28;20380;-68
2023/05/09 01:37:34;;;;;;;25.48;16.58;;;;;;;14.51;100.00;101522.38;5253906;28;20605;-68
2023/05/09 01:40:11;;;;;;;23.08;16.75;;;;;;;14.46;100.00;101521.91;5252022;28;20091;-68
2023/05/09 01:42:48;;;;;;;24.15;15.98;;;;;;;14.44;100.00;101523.84;5254070;28;20059;-67
2023/05/09 01:45:22;;;;;;;26.80;16.63;;;;;;;14.41;100.00;101514.22;5252822;28;20801;-68
2023/05/09 01:47:56;;;;;;;24.10;17.58;;;;;;;14.41;100.00;101516.06;5252593;28;20109;-67
2023/05/09 01:50:29;;;;;;;24.55;17.23;;;;;;;14.48;100.00;101504.69;5254064;28;20577;-67
2023/05/09 01:53:01;;;;;;;21.38;16.00;;;;;;;14.45;100.00;101496.88;5251032;28;20115;-67
2023/05/09 01:55:35;;;;;;;23.30;16.85;;;;;;;14.42;100.00;101501.66;5260655;28;20071;-67
2023/05/09 01:58:08;;;;;;;24.40;17.17;;;;;;;14.50;100.00;101504.56;5261851;28;20074;-66
2023/05/09 02:00:39;;;;;;;25.23;16.63;;;;;;;14.36;100.00;101503.00;5264762;28;20027;-67
2023/05/09 02:03:12;;;;;;;24.20;16.80;;;;;;;14.39;100.00;101494.72;5267851;28;20036;-67
2023/05/09 02:05:45;;;;;;;22.85;16.85;;;;;;;14.37;100.00;101495.81;5263440;28;20444;-68
2023/05/09 02:08:20;;;;;;;23.07;16.30;;;;;;;14.31;100.00;101497.19;5259988;28;20111;-67
2023/05/09 02:10:52;;;;;;;24.83;17.00;;;;;;;14.27;100.00;101487.69;5262681;28;20032;-68
2023/05/09 02:13:23;;;;;;;28.95;16.88;;;;;;;14.24;100.00;101487.91;5265663;28;20028;-68
2023/05/09 02:15:56;;;;;;;24.60;16.00;;;;;;;14.24;100.00;101483.38;5269226;28;20031;-68
2023/05/09 02:18:28;;;;;;;22.65;16.13;;;;;;;14.23;100.00;101489.75;5262564;28;20028;-68
2023/05/09 02:21:00;;;;;;;24.60;16.80;;;;;;;14.27;100.00;101501.09;5260872;28;20116;-68
2023/05/09 02:23:32;;;;;;;23.02;16.85;;;;;;;14.23;100.00;101497.81;5264527;28;20028;-67
2023/05/09 02:26:04;;;;;;;23.80;16.55;;;;;;;14.21;100.00;101504.25;5263065;28;20059;-67
2023/05/09 02:28:37;;;;;;;26.30;16.27;;;;;;;14.26;100.00;101505.59;5264328;28;20028;-68
2023/05/09 02:31:11;;;;;;;24.95;17.00;;;;;;;14.16;100.00;101501.97;5259422;28;20051;-68
2023/05/09 02:33:46;;;;;;;26.58;16.33;;;;;;;14.16;100.00;101496.59;5263570;28;20029;-67
2023/05/09 02:36:19;;;;;;;24.08;17.27;;;;;;;14.17;100.00;101502.81;5259258;28;20032;-68
2023/05/09 02:38:51;;;;;;;23.50;16.40;;;;;;;14.13;100.00;101504.88;5257113;28;20036;-67
2023/05/09 02:41:26;;;;;;;26.27;17.33;;;;;;;14.11;100.00;101507.72;5261157;28;20040;-67
2023/05/09 02:43:57;;;;;;;24.67;17.70;;;;;;;14.16;100.00;101498.44;5262950;28;20451;-68
2023/05/09 02:46:29;;;;;;;23.48;17.05;;;;;;;14.05;100.00;101491.25;5266145;28;20033;-68
2023/05/09 02:49:01;;;;;;;23.73;16.45;;;;;;;14.06;100.00;101482.22;5263425;28;20861;-68
2023/05/09 02:51:32;;;;;;;21.40;16.63;;;;;;;14.01;100.00;101487.94;5258128;28;20029;-68
2023/05/09 02:54:03;;;;;;;22.98;16.70;;;;;;;14.09;100.00;101477.47;5269211;28;20024;-68
2023/05/09 02:56:35;;;;;;;27.65;17.10;;;;;;;14.02;100.00;101478.94;5271444;28;20037;-67
2023/05/09 02:59:06;;;;;;;24.05;16.85;;;;;;;14.14;100.00;101469.03;5267802;28;20031;-67
2023/05/09 03:01:38;;;;;;;25.52;17.50;;;;;;;14.03;100.00;101466.38;5266150;28;20032;-68
2023/05/09 03:04:09;;;;;;;25.08;17.70;;;;;;;14.02;100.00;101462.84;5267065;28;20048;-68
2023/05/09 03:06:41;;;;;;;28.50;19.05;;;;;;;13.98;100.00;101457.81;5267729;28;20454;-68
2023/05/09 03:09:12;;;;;;;29.23;19.30;;;;;;;13.99;100.00;101457.72;5265926;28;20023;-68
2023/05/09 03:11:43;;;;;;;28.40;18.83;;;;;;;13.99;100.00;101459.53;5267702;28;20474;-68
2023/05/09 03:14:15;;;;;;;27.08;17.98;;;;;;;13.97;100.00;101451.63;5265985;28;20028;-68
2023/05/09 03:16:46;;;;;;;27.88;19.45;;;;;;;13.92;100.00;101452.00;5263104;28;20028;-68
2023/05/09 03:19:18;;;;;;;27.67;17.80;;;;;;;13.91;100.00;101447.59;5261295;28;20077;-68
2023/05/09 03:21:49;;;;;;;24.63;17.48;;;;;;;13.97;100.00;101445.41;5261521;28;20409;-68
2023/05/09 03:24:22;;;;;;;27.50;19.35;;;;;;;13.95;100.00;101444.69;5266677;28;20036;-67
2023/05/09 03:26:53;;;;;;;29.83;18.65;;;;;;;13.95;100.00;101444.69;5266085;28;20033;-68
2023/05/09 03:29:25;;;;;;;28.35;18.52;;;;;;;13.87;100.00;101442.63;5267981;28;20028;-68
2023/05/09 03:31:56;;;;;;;29.38;18.13;;;;;;;13.97;100.00;101442.72;5262894;28;20098;-68
2023/05/09 03:34:28;;;;;;;26.38;17.80;;;;;;;13.88;100.00;101441.63;5271074;28;20376;-68
2023/05/09 03:36:59;;;;;;;27.70;18.45;;;;;;;13.94;100.00;101438.47;5265432;28;20056;-68
2023/05/09 03:39:30;;;;;;;27.48;18.15;;;;;;;13.86;100.00;101439.06;5266815;28;20043;-67
2023/05/09 03:42:02;;;;;;;25.08;17.45;;;;;;;13.92;100.00;101437.72;5273214;28;20032;-68
2023/05/09 03:44:33;;;;;;;27.83;17.80;;;;;;;13.95;100.00;101436.63;5272770;28;20057;-67
2023/05/09 03:47:05;;;;;;;26.10;18.15;;;;;;;13.94;100.00;101430.41;5268516;28;20162;-68
2023/05/09 03:49:37;;;;;;;22.77;16.83;;;;;;;13.92;100.00;101432.34;5268312;28;20082;-67
2023/05/09 03:52:08;;;;;;;25.50;17.30;;;;;;;13.90;100.00;101419.09;5265796;28;20409;-68
2023/05/09 03:54:39;;;;;;;25.38;18.73;;;;;;;13.95;100.00;101425.91;5265537;28;20020;-68
2023/05/09 03:57:11;;;;;;;24.60;17.48;;;;;;;13.89;100.00;101422.72;5262690;28;20079;-67
2023/05/09 03:59:42;;;;;;;26.10;17.77;;;;;;;13.89;100.00;101420.03;5266770;28;20471;-68
2023/05/09 04:02:14;;;;;;;24.23;17.95;;;;;;;13.85;100.00;101415.06;5258956;28;20393;-67
2023/05/09 04:04:46;;;;;;;28.50;17.88;;;;;;;13.85;100.00;101415.06;5268938;28;20076;-67
2023/05/09 04:07:18;;;;;;;25.23;17.50;;;;;;;13.85;100.00;101407.03;5265010;28;20150;-67
2023/05/09 04:09:49;;;;;;;27.05;17.67;;;;;;;13.83;100.00;101398.25;5265322;28;20025;-68
2023/05/09 04:12:21;;;;;;;23.50;17.33;;;;;;;13.79;100.00;101404.81;5262758;28;20056;-67
2023/05/09 04:14:52;;;;;;;24.23;17.30;;;;;;;13.84;100.00;101391.88;5254151;28;20028;-67
2023/05/09 04:17:24;;;;;;;23.05;16.95;;;;;;;13.80;100.00;101388.59;5261991;28;20020;-67
2023/05/09 04:19:55;;;;;;;22.45;16.30;;;;;;;13.80;100.00;101393.97;5262163;28;20039;-67
2023/05/09 04:22:26;;;;;;;21.52;15.30;;;;;;;13.85;100.00;101399.81;5261496;28;20509;-68
2023/05/09 04:24:58;;;;;;;19.63;14.63;;;;;;;13.78;100.00;101392.41;5262817;28;20020;-67
2023/05/09 04:27:29;;;;;;;21.88;14.73;;;;;;;13.77;100.00;101394.22;5259058;28;20602;-67
2023/05/09 04:30:01;;;;;;;20.88;14.32;;;;;;;13.80;100.00;101385.91;5257914;28;20056;-67
2023/05/09 04:32:34;;;;;;;19.05;14.32;;;;;;;13.80;100.00;101393.97;5256588;28;20098;-67
2023/05/09 04:35:07;;;;;;;18.98;14.05;;;;;;;13.80;100.00;101385.91;5261378;28;20094;-67
2023/05/09 04:37:38;;;;;;;20.80;14.27;;;;;;;13.88;100.00;101388.84;5261061;28;20106;-67
2023/05/09 04:40:10;;;;;;;18.75;14.27;;;;;;;13.86;100.00;101379.19;5257509;28;20025;-67
2023/05/09 04:42:42;;;;;;;21.02;13.63;;;;;;;13.85;100.00;101372.16;5255642;28;20549;-67
2023/05/09 04:45:14;;;;;;;17.20;13.70;;;;;;;13.90;100.00;101369.91;5256293;28;20037;-67
2023/05/09 04:47:45;;;;;;;17.77;14.00;;;;;;;13.93;100.00;101375.03;5254379;28;20029;-67
2023/05/09 04:50:17;;;;;;;19.10;14.07;;;;;;;14.04;100.00;101383.06;5253201;28;20474;-69
2023/05/09 04:52:48;;;;;;;19.65;14.68;;;;;;;13.99;100.00;101369.16;5255894;28;20024;-67
2023/05/09 04:55:20;;;;;;;16.88;13.00;;;;;;;14.02;100.00;101368.94;5264752;28;20028;-67
2023/05/09 04:57:51;;;;;;;19.90;14.15;;;;;;;14.09;100.00;101369.25;5263699;28;20469;-67
2023/05/09 05:00:22;;;;;;;19.10;13.95;;;;;;;14.11;100.00;101364.63;5269482;28;20103;-68
2023/05/09 05:02:54;;;;;;;16.67;13.52;;;;;;;14.09;100.00;101356.72;5256862;28;20081;-67
2023/05/09 05:05:25;;;;;;;17.90;13.45;;;;;;;14.11;100.00;101345.81;5254678;28;20690;-67
2023/05/09 05:07:57;;;;;;;17.33;12.98;;;;;;;14.21;100.00;101344.09;5250848;28;20090;-67
2023/05/09 05:10:29;;;;;;;19.33;13.57;;;;;;;14.16;100.00;101332.03;5251426;28;20399;-68
2023/05/09 05:13:00;;;;;;;16.67;12.48;;;;;;;14.17;100.00;101325.69;5251260;28;20027;-68
2023/05/09 05:15:32;;;;;;;16.08;12.77;;;;;;;14.22;100.00;101323.47;5254217;28;20029;-68
2023/05/09 05:18:03;;;;;;;15.48;12.98;;;;;;;14.22;100.00;101323.47;5255220;28;20043;-67
2023/05/09 05:20:35;;;;;;;18.15;13.35;;;;;;;14.27;100.00;101313.22;5247728;28;20620;-67
2023/05/09 05:23:07;;;;;;;16.90;13.10;;;;;;;14.35;100.00;101323.28;5250471;28;20070;-67
2023/05/09 05:25:38;;;;;;;17.98;13.75;;;;;;;14.39;100.00;101330.09;5260111;28;20047;-67
2023/05/09 05:28:10;;;;;;;19.15;14.55;;;;;;;14.42;100.00;101316.41;5261708;28;20036;-67
2023/05/09 05:30:41;;;;;;;18.92;14.10;;;;;;;14.42;100.00;101311.91;5263793;28;20042;-67
2023/05/09 05:33:12;;;;;;;17.98;14.02;;;;;;;14.48;100.00;101313.22;5258888;28;20081;-67
2023/05/09 05:35:44;;;;;;;19.17;13.73;;;;;;;14.47;100.00;101312.34;5256876;28;20145;-68
2023/05/09 05:38:15;;;;;;;19.10;13.98;;;;;;;14.52;100.00;101309.28;5258430;28;20024;-67
2023/05/09 05:40:47;;;;;;;18.73;13.55;;;;;;;14.54;100.00;101307.31;5254806;28;21388;-67
2023/05/09 05:43:18;;;;;;;17.33;13.18;;;;;;;14.63;100.00;101300.31;5250797;28;20078;-67
2023/05/09 05:45:50;;;;;;;20.65;14.52;;;;;;;14.69;100.00;101303.31;5253165;28;20035;-67
2023/05/09 05:48:22;;;;;;;19.83;14.25;;;;;;;14.76;100.00;101302.78;5252673;28;20052;-67
2023/05/09 05:50:53;;;;;;;18.83;14.80;;;;;;;14.76;100.00;101302.78;5254411;28;20509;-67
2023/05/09 05:53:25;;;;;;;17.80;13.57;;;;;;;14.81;100.00;101297.88;5255760;28;20124;-67
2023/05/09 05:55:56;;;;;;;16.75;12.95;;;;;;;14.80;100.00;101298.84;5250883;28;20082;-67
2023/05/09 05:58:27;;;;;;;18.85;14.25;;;;;;;14.84;100.00;101286.84;5259264;28;20044;-67
2023/05/09 06:00:59;;;;;;;18.63;13.20;;;;;;;14.88;100.00;101290.97;5254800;28;20028;-67
2023/05/09 06:03:31;;;;;;;17.70;13.75;;;;;;;14.89;100.00;101287.31;5255315;28;20089;-68
2023/05/09 06:06:02;;;;;;;14.98;12.50;;;;;;;14.94;100.00;101285.06;5253937;28;20036;-68
2023/05/09 06:08:34;;;;;;;17.13;13.68;;;;;;;15.00;100.00;101281.00;5253207;28;20624;-68
2023/05/09 06:11:06;;;;;;;15.73;12.57;;;;;;;15.02;100.00;101276.34;5256447;28;20108;-68
2023/05/09 06:13:37;;;;;;;17.48;12.38;;;;;;;15.07;100.00;101271.38;5252182;28;20135;-68
2023/05/09 06:16:09;;;;;;;15.82;12.57;;;;;;;15.12;100.00;101271.00;5249076;28;20127;-68
2023/05/09 06:18:40;;;;;;;18.42;12.75;;;;;;;15.12;100.00;101265.63;5254133;28;20028;-68
2023/05/09 06:21:12;;;;;;;16.42;12.48;;;;;;;15.19;100.00;101267.63;5262541;28;20027;-68
2023/05/09 06:23:43;;;;;;;15.57;11.82;;;;;;;15.20;100.00;101266.63;5261489;28;20029;-67
2023/05/09 06:26:15;;;;;;;17.75;12.68;;;;;;;15.23;100.00;101260.13;5261009;28;20016;-68
2023/05/09 06:28:46;;;;;;;17.00;12.38;;;;;;;15.25;100.00;101266.22;5259363;28;20044;-68
2023/05/09 06:31:18;;;;;;;16.55;12.82;;;;;;;15.31;100.00;101264.81;5262397;28;20032;-68
2023/05/09 06:33:49;;;;;;;17.38;12.25;;;;;;;15.35;100.00;101258.16;5268629;28;20028;-69
2023/05/09 06:36:20;;;;;;;16.70;12.15;;;;;;;15.31;100.00;101259.44;5266165;28;20027;-68
2023/05/09 06:38:52;;;;;;;16.10;12.80;;;;;;;15.40;100.00;101264.84;5261958;28;20411;-67
2023/05/09 06:41:23;;;;;;;15.40;12.18;;;;;;;15.42;100.00;101260.16;5261710;28;20403;-68
2023/05/09 06:43:55;;;;;;;16.45;13.25;;;;;;;15.45;100.00;101254.50;5262400;28;20020;-67
2023/05/09 06:46:26;;;;;;;15.52;11.93;;;;;;;15.46;100.00;101252.69;5263140;28;20036;-68
2023/05/09 06:49:00;;;;;;;16.98;12.50;;;;;;;15.52;100.00;101256.66;5262186;28;20037;-68
2023/05/09 06:51:31;;;;;;;15.13;12.10;;;;;;;15.54;100.00;101249.28;5267264;28;20029;-68
2023/05/09 06:54:03;;;;;;;17.23;12.57;;;;;;;15.54;100.00;101246.59;5275380;28;20028;-68
2023/05/09 06:56:35;;;;;;;16.23;12.13;;;;;;;15.58;100.00;101248.84;5259591;28;20040;-68
2023/05/09 06:59:06;;;;;;;14.05;11.75;;;;;;;15.59;100.00;101245.19;5258714;28;20776;-68
2023/05/09 07:01:39;;;;;;;14.60;11.00;;;;;;;15.70;100.00;101241.50;5265609;28;20029;-68
2023/05/09 07:04:11;;;;;;;15.15;11.70;;;;;;;15.70;100.00;101230.75;5262358;28;20055;-68
2023/05/09 07:06:42;;;;;;;12.90;11.35;;;;;;;15.74;100.00;101234.88;5263261;28;20024;-68
2023/05/09 07:09:16;;;;;;;14.48;11.05;;;;;;;15.74;100.00;101225.97;5263823;28;20028;-68
2023/05/09 07:11:47;;;;;;;14.65;10.88;;;;;;;15.75;100.00;101231.22;5263694;28;20124;-68
2023/05/09 07:14:19;;;;;;;14.73;11.00;;;;;;;15.78;100.00;101224.69;5263459;28;20050;-68
2023/05/09 07:16:50;;;;;;;15.25;10.45;;;;;;;15.81;100.00;101227.94;5264031;28;21762;-68
2023/05/09 07:19:22;;;;;;;13.38;9.75;;;;;;;15.83;100.00;101225.94;5262919;28;20048;-68
2023/05/09 07:21:53;;;;;;;12.00;9.43;;;;;;;15.80;100.00;101217.31;5266433;28;20059;-68
2023/05/09 07:24:24;;;;;;;13.82;10.35;;;;;;;15.80;100.00;101222.69;5262780;28;20028;-68
2023/05/09 07:26:56;;;;;;;13.65;9.50;;;;;;;15.77;100.00;101223.84;5262463;28;20032;-68
2023/05/09 07:29:27;;;;;;;13.52;10.13;;;;;;;15.76;100.00;101216.78;5261119;28;20040;-68
2023/05/09 07:31:58;;;;;;;14.38;10.80;;;;;;;15.73;100.00;101216.19;5256458;28;20121;-68
2023/05/09 07:34:30;;;;;;;11.32;9.65;;;;;;;15.71;100.00;101224.38;5258261;28;20032;-68
2023/05/09 07:37:01;;;;;;;12.50;9.68;;;;;;;15.66;100.00;101221.25;5268701;28;20024;-68
2023/05/09 07:39:33;;;;;;;12.93;10.23;;;;;;;15.62;100.00;101219.84;5266475;28;20029;-68
2023/05/09 07:42:04;;;;;;;11.15;9.73;;;;;;;15.57;100.00;101217.59;5265127;28;20029;-68
2023/05/09 07:44:36;;;;;;;11.15;9.73;;;;;;;15.53;100.00;101215.31;5271285;28;20821;-68
2023/05/09 07:47:07;;;;;;;13.70;10.35;;;;;;;15.52;100.00;101216.31;5266634;28;20149;-68
2023/05/09 07:49:42;;;;;;;12.02;9.90;;;;;;;15.47;100.00;101222.97;5270625;28;20039;-68
2023/05/09 07:52:13;;;;;;;11.82;9.98;;;;;;;15.45;100.00;101211.47;5271292;28;20036;-68
2023/05/09 07:54:44;;;;;;;13.15;9.77;;;;;;;15.46;100.00;101215.88;5271486;28;20029;-67
2023/05/09 07:57:16;;;;;;;12.65;9.90;;;;;;;15.47;100.00;101211.34;5278017;28;20051;-67
2023/05/09 07:59:48;;;;;;;11.77;10.23;;;;;;;15.44;100.00;101204.41;5272325;28;20016;-67
2023/05/09 08:02:19;;;;;;;13.15;10.65;;;;;;;15.49;100.00;101202.16;5270916;28;20404;-67
2023/05/09 08:04:50;;;;;;;13.95;10.88;;;;;;;15.51;100.00;101195.78;5275123;28;20417;-67
2023/05/09 08:07:22;;;;;;;14.95;11.35;;;;;;;15.55;100.00;101203.44;5268238;28;20143;-67
2023/05/09 08:09:53;;;;;;;15.25;10.63;;;;;;;15.58;100.00;101202.28;5280899;28;20024;-67
2023/05/09 08:12:24;;;;;;;12.20;10.50;;;;;;;15.60;100.00;101189.56;5273014;28;20025;-67
2023/05/09 08:14:56;;;;;;;12.48;10.02;;;;;;;15.65;100.00;101189.97;5274589;28;20028;-67
2023/05/09 08:17:27;;;;;;;9.77;8.55;;;;;;;15.67;100.00;101175.38;5277151;28;20032;-67
2023/05/09 08:19:59;;;;;;;12.65;8.93;;;;;;;15.73;100.00;101179.38;5272367;28;20055;-68
2023/05/09 08:22:30;;;;;;;10.98;8.50;;;;;;;15.78;100.00;101177.13;5271058;28;20054;-67
2023/05/09 08:25:01;;;;;;;11.07;8.15;;;;;;;15.88;100.00;101172.56;5275837;28;20036;-68
2023/05/09 08:27:33;;;;;;;10.48;8.45;;;;;;;15.87;100.00;101160.09;5270802;28;20033;-67
2023/05/09 08:30:05;;;;;;;9.40;7.60;;;;;;;15.77;100.00;101156.56;5276257;28;20107;-67
2023/05/09 08:32:36;;;;;;;10.27;8.00;;;;;;;15.87;100.00;101156.56;5272499;28;20486;-67
2023/05/09 08:35:08;;;;;;;10.25;8.68;;;;;;;15.87;100.00;101153.88;5275307;28;20127;-67
2023/05/09 08:37:39;;;;;;;9.52;7.85;;;;;;;15.87;100.00;101153.88;5276664;28;20029;-68
2023/05/09 08:40:11;;;;;;;9.82;8.55;;;;;;;15.87;100.00;101154.72;5270321;28;20032;-67
2023/05/09 08:42:44;;;;;;;9.88;8.40;;;;;;;15.86;100.00;101152.19;5269226;28;20035;-67
2023/05/09 08:45:21;;;;;;;12.45;9.07;;;;;;;15.93;100.00;101157.81;5286450;28;20368;-67
2023/05/09 08:47:53;;;;;;;11.57;8.77;;;;;;;15.92;100.00;101146.22;5265077;28;20131;-67
2023/05/09 08:50:25;;;;;;;11.27;8.18;;;;;;;15.91;100.00;101146.34;5287113;28;20140;-67
2023/05/09 08:52:56;;;;;;;13.55;9.40;;;;;;;15.94;100.00;101140.69;5271254;28;20482;-68
2023/05/09 08:55:28;;;;;;;11.85;9.30;;;;;;;15.92;100.00;101145.38;5258660;28;20033;-68
2023/05/09 08:57:59;;;;;;;10.50;8.70;;;;;;;15.94;100.00;101140.69;5270914;28;20028;-68
2023/05/09 09:00:32;;;;;;;11.05;9.55;;;;;;;15.94;100.00;101140.69;5271932;28;20071;-68
2023/05/09 09:03:06;;;;;;;10.77;8.38;;;;;;;15.91;100.00;101136.44;5272935;28;20690;-68
2023/05/09 09:05:41;;;;;;;10.45;7.93;;;;;;;15.92;100.00;101140.84;5258509;28;20081;-68
2023/05/09 09:08:14;;;;;;;9.98;8.52;;;;;;;15.96;100.00;101144.09;5265796;28;20539;-69
2023/05/09 09:10:46;;;;;;;10.00;7.95;;;;;;;15.97;100.00;101135.00;5276787;28;20090;-68
2023/05/09 09:13:19;;;;;;;9.43;7.63;;;;;;;15.91;100.00;101138.28;5270948;28;20044;-68
2023/05/09 09:15:52;;;;;;;8.00;6.93;;;;;;;15.84;100.00;101138.88;5264455;28;20135;-68
2023/05/09 09:18:32;;;;;;;8.77;7.43;;;;;;;15.85;100.00;101132.47;5269646;28;20044;-68
2023/05/09 09:21:10;;;;;;;8.57;6.82;;;;;;;15.79;100.00;101130.38;5266705;28;20473;-69
2023/05/09 09:23:43;;;;;;;9.52;6.43;;;;;;;15.69;100.00;101133.06;5275302;28;20455;-68
2023/05/09 09:26:14;;;;;;;8.50;6.95;;;;;;;15.76;100.00;101129.81;5273036;28;20387;-68
2023/05/09 09:28:46;;;;;;;8.68;7.22;;;;;;;15.75;100.00;101128.13;5273837;28;20031;-68
2023/05/09 09:31:19;;;;;;;9.30;7.70;;;;;;;15.73;100.00;101122.88;5276596;28;20031;-68
2023/05/09 09:33:51;;;;;;;8.98;7.15;;;;;;;15.70;100.00;101115.06;5267787;28;20056;-68
2023/05/09 09:36:26;;;;;;;8.20;6.95;;;;;;;15.79;100.00;101121.47;5267888;28;20545;-68
2023/05/09 09:38:59;;;;;;;9.65;6.40;;;;;;;15.79;100.00;101116.09;5267905;28;20356;-68
2023/05/09 09:41:34;;;;;;;9.82;6.35;;;;;;;15.77;100.00;101112.69;5276085;28;20024;-68
2023/05/09 09:44:12;;;;;;;7.53;5.22;;;;;;;15.77;100.00;101112.69;5276222;28;20132;-68
2023/05/09 09:46:51;;;;;;;10.60;6.53;;;;;;;15.84;100.00;101108.44;5266915;28;20024;-68
2023/05/09 09:49:25;;;;;;;8.88;6.47;;;;;;;15.85;100.00;101102.88;5262812;28;20111;-67
2023/05/09 09:51:57;;;;;;;11.10;6.70;;;;;;;15.83;100.00;101104.88;5271915;28;20114;-68
2023/05/09 09:54:30;;;;;;;10.23;6.68;;;;;;;15.90;100.00;101104.28;5267877;28;20035;-67
2023/05/09 09:57:02;;;;;;;8.18;6.47;;;;;;;15.87;100.00;101100.88;5262994;28;20148;-67
2023/05/09 09:59:33;;;;;;;7.03;5.85;;;;;;;15.85;100.00;101097.50;5279206;28;20028;-68
2023/05/09 10:02:11;;;;;;;8.18;6.53;;;;;;;15.92;100.00;101097.78;5266366;28;20056;-68
2023/05/09 10:04:42;;;;;;;10.25;7.22;;;;;;;15.89;100.00;101098.06;5266422;28;20098;-68
2023/05/09 10:07:14;;;;;;;9.00;7.10;;;;;;;15.85;100.00;101093.97;5274928;28;20769;-68
2023/05/09 10:09:48;;;;;;;10.00;7.30;;;;;;;15.85;100.00;101094.81;5274865;28;20028;-68
2023/05/09 10:12:22;;;;;;;8.85;7.03;;;;;;;15.82;100.00;101099.63;5265695;28;20544;-67
2023/05/09 10:14:53;;;;;;;8.90;7.05;;;;;;;15.82;100.00;101092.44;5267651;28;20039;-66
2023/05/09 10:17:26;;;;;;;8.85;7.40;;;;;;;15.87;100.00;101092.81;5270553;28;20025;-66
2023/05/09 10:20:03;;;;;;;9.82;7.00;;;;;;;15.75;100.00;101083.25;5268352;28;20029;-67
2023/05/09 10:22:37;;;;;;;8.55;7.15;;;;;;;15.73;100.00;101084.34;5260594;28;20029;-68
2023/05/09 10:25:57;;;;;;;8.63;7.13;;;;;;;15.80;100.00;101082.78;5264500;28;20025;-68
2023/05/09 10:28:32;;;;;;;10.82;7.15;;;;;;;15.67;100.00;101077.72;5240343;28;20079;-67
2023/05/09 10:31:09;;;;;;;8.63;7.15;;;;;;;15.63;100.00;101079.00;5258280;28;20028;-67
2023/05/09 10:33:48;;;;;;;10.45;7.78;;;;;;;15.56;100.00;101072.50;5263481;28;20033;-67
2023/05/09 10:36:21;;;;;;;11.20;8.70;;;;;;;15.55;100.00;101074.34;5256865;28;20016;-67
2023/05/09 10:38:54;;;;;;;11.55;8.20;;;;;;;15.53;100.00;101076.28;5265111;28;20037;-67
2023/05/09 10:41:25;;;;;;;10.23;7.80;;;;;;;15.62;100.00;101070.06;5272400;28;20029;-67
2023/05/09 10:43:58;;;;;;;8.82;7.00;;;;;;;15.61;100.00;101062.13;5268119;28;20516;-67
2023/05/09 10:46:30;;;;;;;8.60;7.18;;;;;;;15.59;100.00;101061.44;5266306;28;20016;-67
2023/05/09 10:49:02;;;;;;;10.82;7.93;;;;;;;15.61;100.00;101059.44;5274335;28;20033;-67
2023/05/09 10:51:34;;;;;;;10.02;8.20;;;;;;;15.61;100.00;101057.63;5257653;28;20032;-67
2023/05/09 10:54:14;;;;;;;13.10;8.30;;;;;;;15.65;100.00;101064.41;5271291;28;20501;-67
2023/05/09 10:56:45;;;;;;;10.57;8.00;;;;;;;15.58;100.00;101052.50;5258918;28;20370;-67
2023/05/09 10:59:50;;;;;;;10.65;8.30;;;;;;;15.62;100.00;101055.75;5265443;28;20027;-67
2023/05/09 11:02:29;;;;;;;9.98;8.48;;;;;;;15.51;100.00;101054.09;5244066;28;20140;-66
2023/05/09 11:05:16;;;;;;;12.98;8.82;;;;;;;15.57;100.00;101052.66;5265361;28;20055;-67
2023/05/09 11:08:24;;;;;;;10.82;9.02;;;;;;;15.51;100.00;101048.69;5274721;28;20035;-67
2023/05/09 11:10:59;;;;;;;11.70;9.07;;;;;;;15.45;100.00;101051.97;5283717;28;20024;-67
2023/05/09 11:13:32;;;;;;;12.13;9.10;;;;;;;15.34;100.00;101044.94;5275677;28;20059;-66
2023/05/09 11:16:07;;;;;;;9.70;8.60;;;;;;;15.27;100.00;101041.13;5276458;28;20020;-66
2023/05/09 11:18:52;;;;;;;10.88;8.25;;;;;;;15.27;100.00;101047.34;5266884;28;20390;-67
2023/05/09 11:21:23;;;;;;;11.60;8.75;;;;;;;15.20;100.00;101037.28;5272078;28;20028;-67
2023/05/09 11:23:55;;;;;;;10.57;8.98;;;;;;;15.22;100.00;101038.84;5267287;28;20032;-66
2023/05/09 11:26:29;;;;;;;8.65;7.20;;;;;;;15.14;100.00;101037.88;5268702;28;20558;-67
2023/05/09 11:29:05;;;;;;;11.02;7.50;;;;;;;15.16;100.00;101033.19;5263109;28;20070;-67
2023/05/09 11:32:08;;;;;;;7.25;6.43;;;;;;;15.10;100.00;101032.75;5268149;28;20461;-68